sensor_id;sensor_type;location;lat;lon;timestamp;pressure;altitude;pressure_sealevel;temperature;humidity
56944;BME280;42848;42.524;12.052;2022-08-21T00:00:16;96424.44;;;22.63;100.00
56944;BME280;42848;42.524;12.052;2022-08-21T00:02:49;96423.16;;;22.75;100.00
56944;BME280;42848;42.524;12.052;2022-08-21T00:05:16;96426.81;;;22.57;100.00
56944;BME280;42848;42.524;12.052;2022-08-21T00:07:42;96429.22;;;22.59;100.00
56944;BME280;42848;42.524;12.052;2022-08-21T00:10:09;96424.00;;;22.64;100.00
56944;BME280;42848;42.524;12.052;2022-08-21T00:12:35;96425.94;;;22.71;100.00
56944;BME280;42848;42.524;12.052;2022-08-21T00:15:01;96429.25;;;23.04;100.00
56944;BME280;42848;42.524;12.052;2022-08-21T00:17:26;96422.78;;;23.21;100.00
56944;BME280;42848;42.524;12.052;2022-08-21T00:19:52;96430.59;;;23.33;100.00
56944;BME280;42848;42.524;12.052;2022-08-21T00:22:18;96430.59;;;23.33;100.00
56944;BME280;42848;42.524;12.052;2022-08-21T00:24:43;96429.34;;;23.41;100.00
56944;BME280;42848;42.524;12.052;2022-08-21T00:27:09;96424.59;;;23.38;100.00
56944;BME280;42848;42.524;12.052;2022-08-21T00:29:35;96426.59;;;23.38;100.00
56944;BME280;42848;42.524;12.052;2022-08-21T00:32:01;96414.56;;;23.14;100.00
56944;BME280;42848;42.524;12.052;2022-08-21T00:34:26;96417.53;;;23.34;100.00
56944;BME280;42848;42.524;12.052;2022-08-21T00:36:52;96416.56;;;23.10;100.00
56944;BME280;42848;42.524;12.052;2022-08-21T00:39:18;96419.22;;;23.24;100.00
56944;BME280;42848;42.524;12.052;2022-08-21T00:41:43;96418.31;;;22.89;100.00
56944;BME280;42848;42.524;12.052;2022-08-21T00:44:12;96416.94;;;23.12;100.00
56944;BME280;42848;42.524;12.052;2022-08-21T00:46:39;96421.28;;;23.13;100.00
56944;BME280;42848;42.524;12.052;2022-08-21T00:49:06;96416.31;;;22.93;100.00
56944;BME280;42848;42.524;12.052;2022-08-21T00:51:38;96416.63;;;23.06;100.00
56944;BME280;42848;42.524;12.052;2022-08-21T00:54:06;96420.09;;;23.14;100.00
56944;BME280;42848;42.524;12.052;2022-08-21T00:56:33;96415.09;;;22.98;100.00
56944;BME280;42848;42.524;12.052;2022-08-21T00:58:59;96418.59;;;23.02;100.00
56944;BME280;42848;42.524;12.052;2022-08-21T01:01:26;96411.22;;;22.88;100.00
56944;BME280;42848;42.524;12.052;2022-08-21T01:03:52;96404.56;;;22.79;100.00
56944;BME280;42848;42.524;12.052;2022-08-21T01:06:18;96408.31;;;23.03;100.00
56944;BME280;42848;42.524;12.052;2022-08-21T01:08:44;96408.41;;;22.92;100.00
56944;BME280;42848;42.524;12.052;2022-08-21T01:11:10;96412.22;;;23.09;100.00
56944;BME280;42848;42.524;12.052;2022-08-21T01:13:37;96404.81;;;22.98;100.00
56944;BME280;42848;42.524;12.052;2022-08-21T01:16:08;96414.69;;;22.99;100.00
56944;BME280;42848;42.524;12.052;2022-08-21T01:18:34;96405.31;;;22.86;100.00
56944;BME280;42848;42.524;12.052;2022-08-21T01:23:29;96400.59;;;22.80;100.00
56944;BME280;42848;42.524;12.052;2022-08-21T01:25:55;96400.28;;;22.67;100.00
56944;BME280;42848;42.524;12.052;2022-08-21T01:28:22;96398.03;;;22.48;100.00
56944;BME280;42848;42.524;12.052;2022-08-21T01:30:48;96398.41;;;22.53;100.00
56944;BME280;42848;42.524;12.052;2022-08-21T01:33:20;96394.59;;;22.29;100.00
56944;BME280;42848;42.524;12.052;2022-08-21T01:35:47;96401.72;;;22.27;100.00
56944;BME280;42848;42.524;12.052;2022-08-21T01:38:13;96396.63;;;22.22;100.00
56944;BME280;42848;42.524;12.052;2022-08-21T01:40:39;96392.88;;;22.53;100.00
56944;BME280;42848;42.524;12.052;2022-08-21T01:43:04;96397.16;;;22.61;100.00
56944;BME280;42848;42.524;12.052;2022-08-21T01:45:30;96394.31;;;22.72;100.00
56944;BME280;42848;42.524;12.052;2022-08-21T01:47:56;96393.34;;;22.41;100.00
56944;BME280;42848;42.524;12.052;2022-08-21T01:50:22;96390.84;;;22.61;100.00
56944;BME280;42848;42.524;12.052;2022-08-21T01:52:49;96397.59;;;22.56;100.00
56944;BME280;42848;42.524;12.052;2022-08-21T01:55:16;96397.16;;;22.61;100.00
56944;BME280;42848;42.524;12.052;2022-08-21T01:57:44;96388.13;;;22.54;100.00
56944;BME280;42848;42.524;12.052;2022-08-21T02:00:14;96386.69;;;22.83;100.00
56944;BME280;42848;42.524;12.052;2022-08-21T02:02:40;96379.22;;;22.80;100.00
56944;BME280;42848;42.524;12.052;2022-08-21T02:05:08;96373.69;;;22.80;100.00
56944;BME280;42848;42.524;12.052;2022-08-21T02:07:38;96377.72;;;22.72;100.00
56944;BME280;42848;42.524;12.052;2022-08-21T02:10:07;96379.41;;;22.59;100.00
56944;BME280;42848;42.524;12.052;2022-08-21T02:12:33;96380.00;;;22.29;100.00
56944;BME280;42848;42.524;12.052;2022-08-21T02:14:59;96378.31;;;22.46;100.00
56944;BME280;42848;42.524;12.052;2022-08-21T02:17:26;96373.88;;;22.55;100.00
56944;BME280;42848;42.524;12.052;2022-08-21T02:19:52;96375.44;;;22.60;100.00
56944;BME280;42848;42.524;12.052;2022-08-21T02:22:17;96374.25;;;22.61;100.00
56944;BME280;42848;42.524;12.052;2022-08-21T02:24:43;96382.09;;;22.66;100.00
56944;BME280;42848;42.524;12.052;2022-08-21T02:27:09;96381.00;;;22.56;100.00
56944;BME280;42848;42.524;12.052;2022-08-21T02:29:35;96381.72;;;22.64;100.00
56944;BME280;42848;42.524;12.052;2022-08-21T02:32:00;96380.69;;;22.40;100.00
56944;BME280;42848;42.524;12.052;2022-08-21T02:34:26;96378.81;;;22.26;100.00
56944;BME280;42848;42.524;12.052;2022-08-21T02:36:52;96376.78;;;22.37;100.00
56944;BME280;42848;42.524;12.052;2022-08-21T02:39:17;96372.03;;;22.38;100.00
56944;BME280;42848;42.524;12.052;2022-08-21T02:41:43;96375.19;;;22.36;100.00
56944;BME280;42848;42.524;12.052;2022-08-21T02:44:08;96369.44;;;22.13;100.00
56944;BME280;42848;42.524;12.052;2022-08-21T02:46:34;96367.69;;;22.40;100.00
56944;BME280;42848;42.524;12.052;2022-08-21T02:49:00;96368.50;;;22.30;100.00
56944;BME280;42848;42.524;12.052;2022-08-21T02:51:26;96364.88;;;22.44;100.00
56944;BME280;42848;42.524;12.052;2022-08-21T02:53:52;96367.34;;;22.28;100.00
56944;BME280;42848;42.524;12.052;2022-08-21T02:56:20;96368.97;;;22.25;100.00
56944;BME280;42848;42.524;12.052;2022-08-21T02:58:49;96367.81;;;22.19;100.00
56944;BME280;42848;42.524;12.052;2022-08-21T03:01:16;96370.22;;;22.06;100.00
56944;BME280;42848;42.524;12.052;2022-08-21T03:03:44;96366.22;;;22.18;100.00
56944;BME280;42848;42.524;12.052;2022-08-21T03:06:13;96369.44;;;22.06;100.00
56944;BME280;42848;42.524;12.052;2022-08-21T03:08:39;96360.75;;;22.11;100.00
56944;BME280;42848;42.524;12.052;2022-08-21T03:11:06;96365.53;;;21.93;100.00
56944;BME280;42848;42.524;12.052;2022-08-21T03:13:32;96367.94;;;21.91;100.00
56944;BME280;42848;42.524;12.052;2022-08-21T03:15:58;96362.38;;;21.98;100.00
56944;BME280;42848;42.524;12.052;2022-08-21T03:18:24;96348.22;;;21.85;100.00
56944;BME280;42848;42.524;12.052;2022-08-21T03:20:50;96358.78;;;22.08;100.00
56944;BME280;42848;42.524;12.052;2022-08-21T03:23:16;96356.47;;;21.96;100.00
56944;BME280;42848;42.524;12.052;2022-08-21T03:25:44;96360.47;;;21.88;100.00
56944;BME280;42848;42.524;12.052;2022-08-21T03:28:15;96354.56;;;21.85;100.00
56944;BME280;42848;42.524;12.052;2022-08-21T03:30:42;96353.75;;;21.85;100.00
56944;BME280;42848;42.524;12.052;2022-08-21T03:33:09;96354.50;;;21.93;100.00
56944;BME280;42848;42.524;12.052;2022-08-21T03:35:35;96351.47;;;21.66;100.00
56944;BME280;42848;42.524;12.052;2022-08-21T03:38:00;96347.50;;;21.67;100.00
56944;BME280;42848;42.524;12.052;2022-08-21T03:40:26;96349.19;;;21.43;100.00
56944;BME280;42848;42.524;12.052;2022-08-21T03:42:52;96349.97;;;21.47;100.00
56944;BME280;42848;42.524;12.052;2022-08-21T03:45:18;96346.84;;;21.23;100.00
56944;BME280;42848;42.524;12.052;2022-08-21T03:47:56;96347.25;;;21.29;100.00
56944;BME280;42848;42.524;12.052;2022-08-21T03:50:31;96351.16;;;21.46;100.00
56944;BME280;42848;42.524;12.052;2022-08-21T03:52:58;96352.41;;;21.06;100.00
56944;BME280;42848;42.524;12.052;2022-08-21T03:55:25;96348.44;;;21.10;100.00
56944;BME280;42848;42.524;12.052;2022-08-21T03:57:51;96357.91;;;21.16;100.00
56944;BME280;42848;42.524;12.052;2022-08-21T04:00:19;96350.03;;;21.22;100.00
56944;BME280;42848;42.524;12.052;2022-08-21T04:02:45;96356.31;;;21.12;100.00
56944;BME280;42848;42.524;12.052;2022-08-21T04:05:13;96351.19;;;21.21;100.00
56944;BME280;42848;42.524;12.052;2022-08-21T04:07:39;96356.34;;;21.08;100.00
56944;BME280;42848;42.524;12.052;2022-08-21T04:10:06;96353.59;;;21.01;100.00
56944;BME280;42848;42.524;12.052;2022-08-21T04:12:33;96355.53;;;21.11;100.00
56944;BME280;42848;42.524;12.052;2022-08-21T04:14:58;96361.47;;;21.10;100.00
56944;BME280;42848;42.524;12.052;2022-08-21T04:17:24;96361.88;;;21.01;100.00
56944;BME280;42848;42.524;12.052;2022-08-21T04:19:50;96363.81;;;21.18;100.00
56944;BME280;42848;42.524;12.052;2022-08-21T04:22:16;96360.28;;;21.07;100.00
56944;BME280;42848;42.524;12.052;2022-08-21T04:24:42;96360.28;;;21.14;100.00
56944;BME280;42848;42.524;12.052;2022-08-21T04:27:08;96357.94;;;21.06;100.00
56944;BME280;42848;42.524;12.052;2022-08-21T04:29:34;96364.25;;;21.06;100.00
56944;BME280;42848;42.524;12.052;2022-08-21T04:31:59;96363.44;;;21.13;100.00
56944;BME280;42848;42.524;12.052;2022-08-21T04:34:25;96367.38;;;21.08;100.00
56944;BME280;42848;42.524;12.052;2022-08-21T04:36:51;96356.34;;;21.15;100.00
56944;BME280;42848;42.524;12.052;2022-08-21T04:39:16;96359.47;;;21.17;100.00
56944;BME280;42848;42.524;12.052;2022-08-21T04:41:42;96364.22;;;21.17;100.00
56944;BME280;42848;42.524;12.052;2022-08-21T04:44:08;96352.38;;;21.16;100.00
56944;BME280;42848;42.524;12.052;2022-08-21T04:46:34;96376.06;;;21.10;100.00
56944;BME280;42848;42.524;12.052;2022-08-21T04:49:00;96369.72;;;21.24;100.00
56944;BME280;42848;42.524;12.052;2022-08-21T04:51:32;96376.81;;;21.43;100.00
56944;BME280;42848;42.524;12.052;2022-08-21T04:54:07;96374.44;;;21.41;100.00
56944;BME280;42848;42.524;12.052;2022-08-21T04:56:41;96380.75;;;21.42;100.00
56944;BME280;42848;42.524;12.052;2022-08-21T04:59:11;96377.19;;;21.45;100.00
56944;BME280;42848;42.524;12.052;2022-08-21T05:01:39;96373.59;;;21.55;100.00
56944;BME280;42848;42.524;12.052;2022-08-21T05:04:08;96377.09;;;21.66;100.00
56944;BME280;42848;42.524;12.052;2022-08-21T05:06:39;96383.44;;;21.63;100.00
56944;BME280;42848;42.524;12.052;2022-08-21T05:09:06;96381.88;;;21.55;100.00
56944;BME280;42848;42.524;12.052;2022-08-21T05:11:35;96389.28;;;21.83;100.00
56944;BME280;42848;42.524;12.052;2022-08-21T05:14:02;96394.50;;;21.63;100.00
56944;BME280;42848;42.524;12.052;2022-08-21T05:16:28;96392.13;;;21.65;100.00
56944;BME280;42848;42.524;12.052;2022-08-21T05:18:54;96391.72;;;21.63;100.00
56944;BME280;42848;42.524;12.052;2022-08-21T05:21:20;96394.84;;;21.76;100.00
56944;BME280;42848;42.524;12.052;2022-08-21T05:23:46;96389.22;;;21.97;100.00
56944;BME280;42848;42.524;12.052;2022-08-21T05:26:12;96396.25;;;22.20;100.00
56944;BME280;42848;42.524;12.052;2022-08-21T05:28:38;96405.66;;;22.29;100.00
56944;BME280;42848;42.524;12.052;2022-08-21T05:31:04;96397.03;;;22.24;100.00
56944;BME280;42848;42.524;12.052;2022-08-21T05:33:29;96394.69;;;22.15;100.00
56944;BME280;42848;42.524;12.052;2022-08-21T05:35:56;96395.84;;;22.18;100.00
56944;BME280;42848;42.524;12.052;2022-08-21T05:38:23;96391.09;;;22.25;100.00
56944;BME280;42848;42.524;12.052;2022-08-21T05:40:49;96391.44;;;22.31;100.00
56944;BME280;42848;42.524;12.052;2022-08-21T05:43:15;96396.19;;;22.27;100.00
56944;BME280;42848;42.524;12.052;2022-08-21T05:45:41;96394.59;;;22.29;100.00
56944;BME280;42848;42.524;12.052;2022-08-21T05:48:08;96391.44;;;22.31;100.00
56944;BME280;42848;42.524;12.052;2022-08-21T05:50:34;96395.34;;;22.40;100.00
56944;BME280;42848;42.524;12.052;2022-08-21T05:53:00;96391.38;;;22.38;100.00
56944;BME280;42848;42.524;12.052;2022-08-21T05:55:26;96386.22;;;22.40;100.00
56944;BME280;42848;42.524;12.052;2022-08-21T05:57:52;96388.94;;;22.47;100.00
56944;BME280;42848;42.524;12.052;2022-08-21T06:00:18;96386.63;;;22.42;100.00
56944;BME280;42848;42.524;12.052;2022-08-21T06:02:43;96387.31;;;22.57;100.00
56944;BME280;42848;42.524;12.052;2022-08-21T06:05:09;96392.88;;;22.53;100.00
56944;BME280;42848;42.524;12.052;2022-08-21T06:07:35;96388.13;;;22.54;100.00
56944;BME280;42848;42.524;12.052;2022-08-21T06:10:00;96381.09;;;22.42;100.00
56944;BME280;42848;42.524;12.052;2022-08-21T06:12:26;96377.44;;;22.56;100.00
56944;BME280;42848;42.524;12.052;2022-08-21T06:14:52;96371.09;;;22.59;100.00
56944;BME280;42848;42.524;12.052;2022-08-21T06:17:18;96367.75;;;22.82;100.00
56944;BME280;42848;42.524;12.052;2022-08-21T06:19:44;96370.66;;;22.64;100.00
56944;BME280;42848;42.524;12.052;2022-08-21T06:22:10;96367.16;;;22.60;100.00
56944;BME280;42848;42.524;12.052;2022-08-21T06:24:35;96365.41;;;22.80;100.00
56944;BME280;42848;42.524;12.052;2022-08-21T06:27:07;96365.81;;;22.75;100.00
56944;BME280;42848;42.524;12.052;2022-08-21T06:29:34;96369.66;;;22.95;100.00
56944;BME280;42848;42.524;12.052;2022-08-21T06:32:00;96373.69;;;22.80;100.00
56944;BME280;42848;42.524;12.052;2022-08-21T06:34:26;96362.59;;;22.87;100.00
56944;BME280;42848;42.524;12.052;2022-08-21T06:36:52;96368.16;;;22.80;100.00
56944;BME280;42848;42.524;12.052;2022-08-21T06:39:18;96374.16;;;22.71;100.00
56944;BME280;42848;42.524;12.052;2022-08-21T06:41:43;96372.44;;;22.92;100.00
56944;BME280;42848;42.524;12.052;2022-08-21T06:44:09;96377.59;;;22.90;100.00
56944;BME280;42848;42.524;12.052;2022-08-21T06:46:35;96376.75;;;22.96;100.00
56944;BME280;42848;42.524;12.052;2022-08-21T06:49:01;96374.31;;;23.02;100.00
56944;BME280;42848;42.524;12.052;2022-08-21T06:51:27;96380.22;;;23.04;100.00
56944;BME280;42848;42.524;12.052;2022-08-21T06:53:53;96382.50;;;23.13;100.00
56944;BME280;42848;42.524;12.052;2022-08-21T06:56:20;96388.81;;;23.17;100.00
56944;BME280;42848;42.524;12.052;2022-08-21T06:58:45;96388.59;;;23.38;100.00
56944;BME280;42848;42.524;12.052;2022-08-21T07:01:11;96380.34;;;23.31;100.00
56944;BME280;42848;42.524;12.052;2022-08-21T07:03:39;96380.22;;;23.45;100.00
56944;BME280;42848;42.524;12.052;2022-08-21T07:06:07;96379.84;;;23.43;100.00
56944;BME280;42848;42.524;12.052;2022-08-21T07:08:33;96376.28;;;23.43;99.32
56944;BME280;42848;42.524;12.052;2022-08-21T07:11:02;96383.34;;;23.47;98.47
56944;BME280;42848;42.524;12.052;2022-08-21T07:13:28;96380.09;;;23.60;100.00
56944;BME280;42848;42.524;12.052;2022-08-21T07:15:54;96382.03;;;23.63;100.00
56944;BME280;42848;42.524;12.052;2022-08-21T07:18:20;96381.19;;;23.66;100.00
56944;BME280;42848;42.524;12.052;2022-08-21T07:20:46;96376.84;;;23.65;100.00
56944;BME280;42848;42.524;12.052;2022-08-21T07:23:21;96377.94;;;23.74;100.00
56944;BME280;42848;42.524;12.052;2022-08-21T07:25:48;96384.25;;;23.75;100.00
56944;BME280;42848;42.524;12.052;2022-08-21T07:28:14;96387.50;;;23.70;100.00
56944;BME280;42848;42.524;12.052;2022-08-21T07:30:40;96387.78;;;23.79;100.00
56944;BME280;42848;42.524;12.052;2022-08-21T07:33:05;96388.16;;;23.81;100.00
56944;BME280;42848;42.524;12.052;2022-08-21T07:35:31;96390.97;;;23.77;100.00
56944;BME280;42848;42.524;12.052;2022-08-21T07:37:58;96387.22;;;23.91;100.00
56944;BME280;42848;42.524;12.052;2022-08-21T07:40:24;96397.91;;;23.93;100.00
56944;BME280;42848;42.524;12.052;2022-08-21T07:42:50;96389.06;;;24.01;100.00
56944;BME280;42848;42.524;12.052;2022-08-21T07:45:19;96386.38;;;23.94;100.00
56944;BME280;42848;42.524;12.052;2022-08-21T07:47:47;96385.84;;;24.06;100.00
56944;BME280;42848;42.524;12.052;2022-08-21T07:50:14;96386.66;;;24.03;100.00
56944;BME280;42848;42.524;12.052;2022-08-21T07:52:41;96386.53;;;24.14;100.00
56944;BME280;42848;42.524;12.052;2022-08-21T07:55:09;96393.31;;;24.09;100.00
56944;BME280;42848;42.524;12.052;2022-08-21T07:57:36;96383.81;;;24.10;100.00
56944;BME280;42848;42.524;12.052;2022-08-21T08:00:08;96380.47;;;24.23;99.99
56944;BME280;42848;42.524;12.052;2022-08-21T08:02:34;96380.09;;;24.21;98.68
56944;BME280;42848;42.524;12.052;2022-08-21T08:05:02;96381.22;;;24.27;100.00
56944;BME280;42848;42.524;12.052;2022-08-21T08:07:29;96385.41;;;24.38;97.48
56944;BME280;42848;42.524;12.052;2022-08-21T08:09:54;96378.38;;;24.30;100.00
56944;BME280;42848;42.524;12.052;2022-08-21T08:12:20;96383.78;;;24.41;95.02
56944;BME280;42848;42.524;12.052;2022-08-21T08:14:46;96379.84;;;24.42;91.43
56944;BME280;42848;42.524;12.052;2022-08-21T08:17:12;96379.09;;;24.38;100.00
56944;BME280;42848;42.524;12.052;2022-08-21T08:19:39;96375.63;;;24.57;94.20
56944;BME280;42848;42.524;12.052;2022-08-21T08:22:16;96379.59;;;24.56;96.00
56944;BME280;42848;42.524;12.052;2022-08-21T08:24:42;96370.34;;;24.90;100.00
56944;BME280;42848;42.524;12.052;2022-08-21T08:27:08;96376.03;;;24.83;92.41
56944;BME280;42848;42.524;12.052;2022-08-21T08:29:34;96370.81;;;24.61;100.00
56944;BME280;42848;42.524;12.052;2022-08-21T08:32:00;96370.03;;;24.61;100.00
56944;BME280;42848;42.524;12.052;2022-08-21T08:34:26;96366.13;;;24.82;98.16
56944;BME280;42848;42.524;12.052;2022-08-21T08:36:52;96363.78;;;24.80;97.79
56944;BME280;42848;42.524;12.052;2022-08-21T08:39:18;96366.13;;;25.05;97.77
56944;BME280;42848;42.524;12.052;2022-08-21T08:41:44;96364.69;;;24.97;93.08
56944;BME280;42848;42.524;12.052;2022-08-21T08:44:13;96362.81;;;24.90;95.17
56944;BME280;42848;42.524;12.052;2022-08-21T08:46:41;96365.66;;;25.10;94.74
56944;BME280;42848;42.524;12.052;2022-08-21T08:49:53;96360.59;;;25.05;99.09
56944;BME280;42848;42.524;12.052;2022-08-21T08:52:33;96362.38;;;25.39;100.00
56944;BME280;42848;42.524;12.052;2022-08-21T08:57:31;96361.16;;;25.40;100.00
56944;BME280;42848;42.524;12.052;2022-08-21T09:00:00;96365.34;;;25.28;100.00
56944;BME280;42848;42.524;12.052;2022-08-21T09:02:26;96369.09;;;25.18;99.19
56944;BME280;42848;42.524;12.052;2022-08-21T09:04:55;96358.69;;;25.22;84.03
56944;BME280;42848;42.524;12.052;2022-08-21T09:07:47;96357.16;;;25.41;94.48
56944;BME280;42848;42.524;12.052;2022-08-21T09:13:21;96362.78;;;25.80;95.56
56944;BME280;42848;42.524;12.052;2022-08-21T09:16:13;96358.06;;;25.97;100.00
56944;BME280;42848;42.524;12.052;2022-08-21T09:19:04;96354.16;;;26.11;100.00
56944;BME280;42848;42.524;12.052;2022-08-21T09:21:51;96360.31;;;26.02;90.71
56944;BME280;42848;42.524;12.052;2022-08-21T09:27:11;96356.06;;;25.78;88.03
56944;BME280;42848;42.524;12.052;2022-08-21T09:29:41;96353.56;;;25.84;85.28
56944;BME280;42848;42.524;12.052;2022-08-21T09:37:28;96353.34;;;25.94;89.59
56944;BME280;42848;42.524;12.052;2022-08-21T09:39:55;96350.13;;;25.96;87.79
56944;BME280;42848;42.524;12.052;2022-08-21T09:42:25;96351.69;;;25.97;83.95
56944;BME280;42848;42.524;12.052;2022-08-21T09:45:08;96348.56;;;25.95;86.23
56944;BME280;42848;42.524;12.052;2022-08-21T09:47:34;96347.53;;;26.05;84.70
56944;BME280;42848;42.524;12.052;2022-08-21T09:50:26;96343.72;;;25.99;82.07
56944;BME280;42848;42.524;12.052;2022-08-21T09:52:58;96348.06;;;26.00;81.44
56944;BME280;42848;42.524;12.052;2022-08-21T09:58:12;96338.78;;;26.06;85.84
56944;BME280;42848;42.524;12.052;2022-08-21T10:00:38;96337.41;;;26.31;87.31
56944;BME280;42848;42.524;12.052;2022-08-21T10:05:37;96338.53;;;26.17;80.04
56944;BME280;42848;42.524;12.052;2022-08-21T10:08:03;96330.88;;;26.21;82.93
56944;BME280;42848;42.524;12.052;2022-08-21T10:10:35;96326.94;;;26.39;83.96
56944;BME280;42848;42.524;12.052;2022-08-21T10:13:26;96333.41;;;26.32;85.74
56944;BME280;42848;42.524;12.052;2022-08-21T10:18:42;96333.34;;;26.35;83.02
56944;BME280;42848;42.524;12.052;2022-08-21T10:24:11;96338.19;;;26.31;80.96
56944;BME280;42848;42.524;12.052;2022-08-21T10:29:28;96328.97;;;26.54;82.81
56944;BME280;42848;42.524;12.052;2022-08-21T10:42:56;96316.44;;;26.62;76.64
56944;BME280;42848;42.524;12.052;2022-08-21T10:48:46;96309.31;;;26.61;80.27
56944;BME280;42848;42.524;12.052;2022-08-21T10:52:07;96307.53;;;26.68;79.25
56944;BME280;42848;42.524;12.052;2022-08-21T10:56:40;96305.25;;;26.79;72.50
56944;BME280;42848;42.524;12.052;2022-08-21T10:59:30;96298.03;;;26.98;75.61
56944;BME280;42848;42.524;12.052;2022-08-21T11:02:13;96295.16;;;27.17;74.39
56944;BME280;42848;42.524;12.052;2022-08-21T11:04:52;96306.59;;;27.07;72.91
56944;BME280;42848;42.524;12.052;2022-08-21T11:07:38;96294.38;;;27.01;72.26
56944;BME280;42848;42.524;12.052;2022-08-21T11:10:29;96286.28;;;27.06;70.76
56944;BME280;42848;42.524;12.052;2022-08-21T11:13:04;96291.44;;;27.08;71.58
56944;BME280;42848;42.524;12.052;2022-08-21T11:20:42;96281.59;;;27.32;69.34
56944;BME280;42848;42.524;12.052;2022-08-21T11:23:11;96278.47;;;27.30;67.14
56944;BME280;42848;42.524;12.052;2022-08-21T11:25:42;96286.63;;;27.37;68.21
56944;BME280;42848;42.524;12.052;2022-08-21T11:28:20;96282.63;;;27.38;67.52
56944;BME280;42848;42.524;12.052;2022-08-21T11:34:23;96268.75;;;27.64;68.13
56944;BME280;42848;42.524;12.052;2022-08-21T11:40:06;96280.41;;;27.46;66.05
56944;BME280;42848;42.524;12.052;2022-08-21T11:42:50;96269.13;;;27.37;65.50
56944;BME280;42848;42.524;12.052;2022-08-21T11:45:39;96274.06;;;27.45;64.64
56944;BME280;42848;42.524;12.052;2022-08-21T11:51:21;96271.22;;;27.62;68.44
56944;BME280;42848;42.524;12.052;2022-08-21T11:56:46;96261.81;;;27.56;66.00
56944;BME280;42848;42.524;12.052;2022-08-21T11:59:22;96259.56;;;27.50;64.38
56944;BME280;42848;42.524;12.052;2022-08-21T12:01:51;96265.13;;;27.50;65.81
56944;BME280;42848;42.524;12.052;2022-08-21T12:04:29;96255.91;;;27.54;63.41
56944;BME280;42848;42.524;12.052;2022-08-21T12:07:17;96261.13;;;27.52;70.84
56944;BME280;42848;42.524;12.052;2022-08-21T12:09:56;96265.63;;;27.62;68.63
56944;BME280;42848;42.524;12.052;2022-08-21T12:12:31;96251.25;;;27.63;64.04
56944;BME280;42848;42.524;12.052;2022-08-21T12:41:45;96219.25;;;27.68;66.98
56944;BME280;42848;42.524;12.052;2022-08-21T12:44:01;96227.28;;;27.66;67.26
56944;BME280;42848;42.524;12.052;2022-08-21T12:46:44;96217.91;;;27.85;66.97
56944;BME280;42848;42.524;12.052;2022-08-21T12:49:35;96220.03;;;27.94;65.00
56944;BME280;42848;42.524;12.052;2022-08-21T12:52:11;96209.88;;;27.87;64.90
56944;BME280;42848;42.524;12.052;2022-08-21T12:54:41;96213.13;;;27.98;65.16
56944;BME280;42848;42.524;12.052;2022-08-21T12:57:21;96211.09;;;28.12;58.95
56944;BME280;42848;42.524;12.052;2022-08-21T13:02:23;96201.72;;;28.05;61.45
56944;BME280;42848;42.524;12.052;2022-08-21T13:04:50;96193.81;;;28.17;60.81
56944;BME280;42848;42.524;12.052;2022-08-21T13:07:32;96194.13;;;28.06;62.81
56944;BME280;42848;42.524;12.052;2022-08-21T13:10:03;96198.72;;;28.13;67.06
56944;BME280;42848;42.524;12.052;2022-08-21T13:12:31;96194.13;;;28.19;68.89
56944;BME280;42848;42.524;12.052;2022-08-21T13:15:02;96196.41;;;28.58;69.68
56944;BME280;42848;42.524;12.052;2022-08-21T13:17:34;96194.00;;;28.82;66.56
56944;BME280;42848;42.524;12.052;2022-08-21T13:20:08;96182.03;;;28.82;65.84
56944;BME280;42848;42.524;12.052;2022-08-21T13:22:44;96178.25;;;28.76;61.72
56944;BME280;42848;42.524;12.052;2022-08-21T13:25:15;96183.00;;;29.01;58.46
56944;BME280;42848;42.524;12.052;2022-08-21T13:27:43;96169.09;;;29.10;58.65
56944;BME280;42848;42.524;12.052;2022-08-21T13:30:19;96173.59;;;29.16;61.22
56944;BME280;42848;42.524;12.052;2022-08-21T13:32:54;96172.56;;;29.23;57.63
56944;BME280;42848;42.524;12.052;2022-08-21T13:35:46;96177.53;;;29.19;58.00
56944;BME280;42848;42.524;12.052;2022-08-21T13:38:10;96174.22;;;28.77;57.09
56944;BME280;42848;42.524;12.052;2022-08-21T13:40:44;96166.09;;;28.70;60.34
56944;BME280;42848;42.524;12.052;2022-08-21T13:43:18;96171.59;;;28.60;56.03
56944;BME280;42848;42.524;12.052;2022-08-21T13:45:51;96169.88;;;28.41;57.48
56944;BME280;42848;42.524;12.052;2022-08-21T13:48:17;96178.34;;;28.50;60.02
56944;BME280;42848;42.524;12.052;2022-08-21T13:50:44;96173.31;;;28.80;60.27
56944;BME280;42848;42.524;12.052;2022-08-21T13:53:34;96172.03;;;28.72;57.26
56944;BME280;42848;42.524;12.052;2022-08-21T13:56:03;96171.69;;;28.70;58.57
56944;BME280;42848;42.524;12.052;2022-08-21T13:58:31;96163.41;;;28.44;61.02
56944;BME280;42848;42.524;12.052;2022-08-21T14:00:59;96164.63;;;28.43;61.04
56944;BME280;42848;42.524;12.052;2022-08-21T14:03:33;96157.38;;;28.33;60.95
56944;BME280;42848;42.524;12.052;2022-08-21T14:06:00;96158.94;;;28.34;60.94
56944;BME280;42848;42.524;12.052;2022-08-21T14:08:31;96152.47;;;28.24;63.23
56944;BME280;42848;42.524;12.052;2022-08-21T14:10:59;96148.25;;;28.20;62.75
56944;BME280;42848;42.524;12.052;2022-08-21T14:13:42;96148.34;;;28.16;63.44
56944;BME280;42848;42.524;12.052;2022-08-21T14:16:15;96151.72;;;28.11;66.01
56944;BME280;42848;42.524;12.052;2022-08-21T14:21:38;96141.16;;;27.93;63.04
56944;BME280;42848;42.524;12.052;2022-08-21T14:24:23;96129.06;;;27.96;68.24
56944;BME280;42848;42.524;12.052;2022-08-21T14:26:53;96123.97;;;27.82;65.54
56944;BME280;42848;42.524;12.052;2022-08-21T14:29:22;96116.72;;;27.85;68.25